Share

Beechmont, KY (42323)

North Todd (KKYELKTO2) Elev 721 ft | 36.88 °N, 87.17 °W | Change Station

Current weather conditions updated 3 minutes ago

Clear
Clear
63.9 °F
Feels Like 63.9 °F
N
0.0
Wind Variable Wind from NE
Gusts 0.0 mph
Sunrise 6:08 AM
Sunset 7:26 PM
Moon Waning Gibbous

Tomorrow is forecast to be Warmer than today.

Pressure 30.18 in
Visibility 10.0 miles
Clouds Clear
Dew Point 41 °F
Humidity 43%
Rainfall 0.00 in
Snow Depth Not available.
UV 0 out of 16
Pollen 9.80 out of 12
Air Quality Not available.
Flu Activity Sporadic
METAR K2I0 200055Z AUTO 04005KT 10SM CLR 19/07 A3018 RMK AO2 T01940066

More Conditions Fewer Conditions

Pressure 30.18 in
Visibility 10.0 miles
Clouds Clear
Dew Point 41 °F
Humidity 43%
Rainfall 0.00 in
Snow Depth Not available.
UV 0 out of 16
Pollen 9.80 out of 12
Air Quality Not available.
Flu Activity Sporadic
METAR K2I0 200055Z AUTO 04005KT 10SM CLR 19/07 A3018 RMK AO2 T01940066

More Conditions Fewer Conditions

10-Day Weather Forecast

Almanac

Astronomy

Apr. 19, 2014 Rise Set
Actual Time 6:08 AM CDT 7:26 PM CDT
Civil Twilight 5:41 AM CDT 7:53 PM CDT
Nautical Twilight 5:08 AM CDT 8:26 PM CDT
Astronomical Twilight 4:35 AM CDT 9:00 PM CDT
Moon No Moon Rise 9:29 AM CDT (4/19)
Length of Visible Light 14h 12m
Length of Day
13h 18m
Tomorrow will be 2m 13s longer.
Waning Gibbous, 75% of the Moon is Illuminated
Today
Waning Gibbous
Apr 22
Last Quarter
Apr 29
New
May 6
First Quarter
May 14
Full

Today's Extremes

State Highs State Lows

Community

  • White-Crowned Sparrow
    White-Crowned Sparrow
  • New Day
    New Day
  • Happy Easter!
    Happy Easter!
  • poppy bloom near Mazar-e-Sharif
    poppy bloom near Mazar-e-Sharif
  • Happy Easter WU friends!!!!
    Happy Easter WU friends!!!!

WunderPhotos

Upload Photos

1,703,007 photos uploaded!

WunderBlogs® & News

Nearby

Snow Depth

Station Depth Elevation
No new snow has been reported.

Coastal Water Temperatures

Place Temperature
No Stations Reporting

Earthquake Activity

City Distance Mag. Time & Date
No recent earthquake activity has been reported nearby.
Minimum magnitude displayed is 2.5.

Nearby Weather Stations

Station Location Temp. Heat Index Dew Point Humidity Wind Precip. Elev Updated Type
RAWS GREENVILLE KY, Greenville, KY 71 °F 76 °F 39 °F 31% North  at  3 mph 0.00 in / hr 551 ft 7:15 PM CDT MADIS
KYTC_RWIS Wendell Ford @ Beaver Dam Serv, Cromwell, KY 70 °F - 37 °F 30% SE  at  4 mph 0.00 in / hr 431 ft 7:05 PM CDT MADIS
North Todd, Elkton, KY 63.9 °F - 41 °F 43% NE  at  0.0 mph 0.00 in / hr 721 ft 8:13 PM CDT Normal
West side of Oak Hill Cemetery-dchsr, Livermore, KY 63.7 °F - 36 °F 35% ENE  at  0.0 mph 0.00 in / hr 420 ft 8:16 PM CDT Rapid Fire

Show More Stations Show Fewer Stations

What do you think?

We're not finished. Please let us know what you like, what you don't like, and what you are still missing.